sensor_id;sensor_type;location;lat;lon;timestamp;temperature;humidity
67555;HTU21D;54385;53.516;49.456;2022-11-15T00:00:30;-3.61;62.12
67555;HTU21D;54385;53.516;49.456;2022-11-15T00:02:56;-3.63;60.33
67555;HTU21D;54385;53.516;49.456;2022-11-15T00:05:23;-3.65;60.02
67555;HTU21D;54385;53.516;49.456;2022-11-15T00:07:49;-3.70;59.66
67555;HTU21D;54385;53.516;49.456;2022-11-15T00:10:16;-3.74;60.73
67555;HTU21D;54385;53.516;49.456;2022-11-15T00:12:42;-3.74;60.88
67555;HTU21D;54385;53.516;49.456;2022-11-15T00:15:09;-3.71;61.96
67555;HTU21D;54385;53.516;49.456;2022-11-15T00:17:35;-3.77;61.39
67555;HTU21D;54385;53.516;49.456;2022-11-15T00:20:01;-3.82;61.40
67555;HTU21D;54385;53.516;49.456;2022-11-15T00:22:32;-3.85;60.96
67555;HTU21D;54385;53.516;49.456;2022-11-15T00:24:59;-3.89;60.87
67555;HTU21D;54385;53.516;49.456;2022-11-15T00:27:25;-3.91;61.75
67555;HTU21D;54385;53.516;49.456;2022-11-15T00:29:53;-3.91;60.24
67555;HTU21D;54385;53.516;49.456;2022-11-15T00:32:19;-3.90;60.56
67555;HTU21D;54385;53.516;49.456;2022-11-15T00:34:46;-3.87;60.43
67555;HTU21D;54385;53.516;49.456;2022-11-15T00:37:12;-3.91;60.15
67555;HTU21D;54385;53.516;49.456;2022-11-15T00:39:38;-3.91;60.92
67555;HTU21D;54385;53.516;49.456;2022-11-15T00:42:05;-3.91;61.19
67555;HTU21D;54385;53.516;49.456;2022-11-15T00:44:31;-3.86;60.82
67555;HTU21D;54385;53.516;49.456;2022-11-15T00:46:58;-3.81;60.70
67555;HTU21D;54385;53.516;49.456;2022-11-15T00:49:25;-3.75;61.23
67555;HTU21D;54385;53.516;49.456;2022-11-15T00:51:51;-3.76;61.12
67555;HTU21D;54385;53.516;49.456;2022-11-15T00:54:18;-3.80;61.19
67555;HTU21D;54385;53.516;49.456;2022-11-15T00:56:47;-3.80;61.41
67555;HTU21D;54385;53.516;49.456;2022-11-15T00:59:13;-3.76;61.82
67555;HTU21D;54385;53.516;49.456;2022-11-15T01:01:39;-3.76;62.30
67555;HTU21D;54385;53.516;49.456;2022-11-15T01:04:06;-3.78;61.96
67555;HTU21D;54385;53.516;49.456;2022-11-15T01:06:32;-3.78;61.86
67555;HTU21D;54385;53.516;49.456;2022-11-15T01:08:59;-3.70;61.58
67555;HTU21D;54385;53.516;49.456;2022-11-15T01:11:25;-3.74;61.69
67555;HTU21D;54385;53.516;49.456;2022-11-15T01:13:51;-3.72;62.19
67555;HTU21D;54385;53.516;49.456;2022-11-15T01:16:18;-3.70;61.26
67555;HTU21D;54385;53.516;49.456;2022-11-15T01:18:45;-3.65;61.60
67555;HTU21D;54385;53.516;49.456;2022-11-15T01:21:15;-3.58;61.92
67555;HTU21D;54385;53.516;49.456;2022-11-15T01:23:42;-3.62;61.42
67555;HTU21D;54385;53.516;49.456;2022-11-15T01:26:12;-3.61;62.40
67555;HTU21D;54385;53.516;49.456;2022-11-15T01:28:40;-3.55;60.97
67555;HTU21D;54385;53.516;49.456;2022-11-15T01:31:12;-3.52;61.35
67555;HTU21D;54385;53.516;49.456;2022-11-15T01:33:39;-3.52;61.14
67555;HTU21D;54385;53.516;49.456;2022-11-15T01:36:08;-3.50;60.36
67555;HTU21D;54385;53.516;49.456;2022-11-15T01:38:34;-3.51;60.26
67555;HTU21D;54385;53.516;49.456;2022-11-15T01:41:01;-3.49;61.75
67555;HTU21D;54385;53.516;49.456;2022-11-15T01:43:33;-3.54;63.81
67555;HTU21D;54385;53.516;49.456;2022-11-15T01:48:41;-3.65;64.98
67555;HTU21D;54385;53.516;49.456;2022-11-15T01:51:10;-3.63;64.86
67555;HTU21D;54385;53.516;49.456;2022-11-15T01:53:38;-3.58;63.65
67555;HTU21D;54385;53.516;49.456;2022-11-15T01:56:14;-3.63;62.53
67555;HTU21D;54385;53.516;49.456;2022-11-15T01:58:46;-3.63;63.09
67555;HTU21D;54385;53.516;49.456;2022-11-15T02:01:13;-3.60;62.69
67555;HTU21D;54385;53.516;49.456;2022-11-15T02:03:42;-3.61;63.15
67555;HTU21D;54385;53.516;49.456;2022-11-15T02:06:12;-3.65;63.89
67555;HTU21D;54385;53.516;49.456;2022-11-15T02:08:38;-3.64;63.77
67555;HTU21D;54385;53.516;49.456;2022-11-15T02:11:07;-3.63;63.60
67555;HTU21D;54385;53.516;49.456;2022-11-15T02:13:36;-3.68;64.05
67555;HTU21D;54385;53.516;49.456;2022-11-15T02:19:02;-3.72;63.58
67555;HTU21D;54385;53.516;49.456;2022-11-15T02:21:40;-3.72;63.31
67555;HTU21D;54385;53.516;49.456;2022-11-15T02:30:29;-3.65;61.76
67555;HTU21D;54385;53.516;49.456;2022-11-15T02:33:37;-3.64;62.79
67555;HTU21D;54385;53.516;49.456;2022-11-15T02:36:18;-3.63;63.31
67555;HTU21D;54385;53.516;49.456;2022-11-15T02:38:58;-3.67;62.86
67555;HTU21D;54385;53.516;49.456;2022-11-15T02:41:53;-3.65;63.47
67555;HTU21D;54385;53.516;49.456;2022-11-15T02:44:34;-3.65;63.71
67555;HTU21D;54385;53.516;49.456;2022-11-15T02:47:06;-3.68;63.34
67555;HTU21D;54385;53.516;49.456;2022-11-15T02:49:53;-3.68;62.30
67555;HTU21D;54385;53.516;49.456;2022-11-15T02:52:22;-3.76;62.21
67555;HTU21D;54385;53.516;49.456;2022-11-15T02:54:59;-3.77;61.76
67555;HTU21D;54385;53.516;49.456;2022-11-15T02:57:51;-3.81;61.90
67555;HTU21D;54385;53.516;49.456;2022-11-15T03:00:19;-3.80;62.84
67555;HTU21D;54385;53.516;49.456;2022-11-15T03:06:26;-3.82;62.75
67555;HTU21D;54385;53.516;49.456;2022-11-15T03:11:23;-3.75;63.98
67555;HTU21D;54385;53.516;49.456;2022-11-15T03:13:57;-3.71;63.63
67555;HTU21D;54385;53.516;49.456;2022-11-15T03:18:59;-3.78;64.84
67555;HTU21D;54385;53.516;49.456;2022-11-15T03:21:30;-3.86;65.33
67555;HTU21D;54385;53.516;49.456;2022-11-15T03:24:02;-3.90;65.58
67555;HTU21D;54385;53.516;49.456;2022-11-15T03:26:30;-3.86;64.36
67555;HTU21D;54385;53.516;49.456;2022-11-15T03:29:09;-3.90;63.56
67555;HTU21D;54385;53.516;49.456;2022-11-15T03:31:40;-3.83;63.53
67555;HTU21D;54385;53.516;49.456;2022-11-15T03:34:27;-3.82;63.56
67555;HTU21D;54385;53.516;49.456;2022-11-15T03:36:55;-3.77;64.01
67555;HTU21D;54385;53.516;49.456;2022-11-15T03:39:23;-3.81;64.14
67555;HTU21D;54385;53.516;49.456;2022-11-15T03:42:22;-3.91;64.67
67555;HTU21D;54385;53.516;49.456;2022-11-15T03:45:05;-3.85;64.92
67555;HTU21D;54385;53.516;49.456;2022-11-15T03:48:22;-3.85;64.92
67555;HTU21D;54385;53.516;49.456;2022-11-15T03:50:54;-3.83;64.60
67555;HTU21D;54385;53.516;49.456;2022-11-15T03:53:21;-3.81;64.25
67555;HTU21D;54385;53.516;49.456;2022-11-15T03:55:47;-3.78;63.24
67555;HTU21D;54385;53.516;49.456;2022-11-15T03:58:14;-3.83;63.42
67555;HTU21D;54385;53.516;49.456;2022-11-15T04:00:40;-3.80;64.08
67555;HTU21D;54385;53.516;49.456;2022-11-15T04:03:07;-3.78;63.93
67555;HTU21D;54385;53.516;49.456;2022-11-15T04:05:34;-3.80;63.24
67555;HTU21D;54385;53.516;49.456;2022-11-15T04:08:03;-3.79;64.08
67555;HTU21D;54385;53.516;49.456;2022-11-15T04:10:31;-3.77;64.66
67555;HTU21D;54385;53.516;49.456;2022-11-15T04:13:02;-3.68;64.72
67555;HTU21D;54385;53.516;49.456;2022-11-15T04:15:29;-3.70;64.91
67555;HTU21D;54385;53.516;49.456;2022-11-15T04:18:05;-3.67;65.37
67555;HTU21D;54385;53.516;49.456;2022-11-15T04:20:41;-3.70;67.27
67555;HTU21D;54385;53.516;49.456;2022-11-15T04:23:31;-3.72;67.25
67555;HTU21D;54385;53.516;49.456;2022-11-15T04:26:18;-3.67;67.98
67555;HTU21D;54385;53.516;49.456;2022-11-15T04:28:48;-3.68;69.81
67555;HTU21D;54385;53.516;49.456;2022-11-15T04:31:38;-3.72;69.75
67555;HTU21D;54385;53.516;49.456;2022-11-15T04:34:04;-3.79;68.62
67555;HTU21D;54385;53.516;49.456;2022-11-15T04:36:31;-3.84;68.27
67555;HTU21D;54385;53.516;49.456;2022-11-15T04:39:16;-3.80;68.31
67555;HTU21D;54385;53.516;49.456;2022-11-15T04:41:43;-3.72;68.42
67555;HTU21D;54385;53.516;49.456;2022-11-15T04:44:17;-3.61;68.54
67555;HTU21D;54385;53.516;49.456;2022-11-15T04:46:44;-3.61;68.62
67555;HTU21D;54385;53.516;49.456;2022-11-15T04:49:11;-3.55;68.96
67555;HTU21D;54385;53.516;49.456;2022-11-15T04:51:39;-3.51;66.75
67555;HTU21D;54385;53.516;49.456;2022-11-15T04:54:06;-3.50;65.66
67555;HTU21D;54385;53.516;49.456;2022-11-15T04:56:33;-3.46;65.17
67555;HTU21D;54385;53.516;49.456;2022-11-15T04:59:02;-3.48;64.32
67555;HTU21D;54385;53.516;49.456;2022-11-15T05:01:28;-3.47;63.70
67555;HTU21D;54385;53.516;49.456;2022-11-15T05:03:55;-3.35;63.06
67555;HTU21D;54385;53.516;49.456;2022-11-15T05:06:40;-3.28;63.16
67555;HTU21D;54385;53.516;49.456;2022-11-15T05:09:06;-3.36;61.99
67555;HTU21D;54385;53.516;49.456;2022-11-15T05:11:33;-3.31;62.41
67555;HTU21D;54385;53.516;49.456;2022-11-15T05:13:59;-3.31;61.47
67555;HTU21D;54385;53.516;49.456;2022-11-15T05:16:26;-3.34;61.67
67555;HTU21D;54385;53.516;49.456;2022-11-15T05:18:53;-3.32;62.89
67555;HTU21D;54385;53.516;49.456;2022-11-15T05:21:23;-3.34;62.95
67555;HTU21D;54385;53.516;49.456;2022-11-15T05:23:49;-3.38;63.47
67555;HTU21D;54385;53.516;49.456;2022-11-15T05:26:17;-3.34;63.10
67555;HTU21D;54385;53.516;49.456;2022-11-15T05:28:44;-3.35;63.34
67555;HTU21D;54385;53.516;49.456;2022-11-15T05:31:13;-3.34;63.39
67555;HTU21D;54385;53.516;49.456;2022-11-15T05:33:41;-3.31;63.64
67555;HTU21D;54385;53.516;49.456;2022-11-15T05:36:29;-3.24;63.66
67555;HTU21D;54385;53.516;49.456;2022-11-15T05:38:57;-3.19;62.69
67555;HTU21D;54385;53.516;49.456;2022-11-15T05:44:05;-3.31;63.04
67555;HTU21D;54385;53.516;49.456;2022-11-15T05:46:35;-3.35;63.86
67555;HTU21D;54385;53.516;49.456;2022-11-15T05:49:07;-3.39;63.23
67555;HTU21D;54385;53.516;49.456;2022-11-15T05:51:35;-3.39;63.04
67555;HTU21D;54385;53.516;49.456;2022-11-15T05:54:02;-3.37;62.41
67555;HTU21D;54385;53.516;49.456;2022-11-15T05:56:29;-3.31;63.03
67555;HTU21D;54385;53.516;49.456;2022-11-15T05:58:57;-3.21;62.12
67555;HTU21D;54385;53.516;49.456;2022-11-15T06:01:25;-3.24;62.08
67555;HTU21D;54385;53.516;49.456;2022-11-15T06:03:52;-3.17;63.02
67555;HTU21D;54385;53.516;49.456;2022-11-15T06:06:19;-3.13;62.23
67555;HTU21D;54385;53.516;49.456;2022-11-15T06:08:45;-3.07;62.36
67555;HTU21D;54385;53.516;49.456;2022-11-15T06:11:14;-3.19;62.23
67555;HTU21D;54385;53.516;49.456;2022-11-15T06:13:40;-3.25;62.24
67555;HTU21D;54385;53.516;49.456;2022-11-15T06:16:10;-3.33;61.67
67555;HTU21D;54385;53.516;49.456;2022-11-15T06:18:37;-3.27;61.19
67555;HTU21D;54385;53.516;49.456;2022-11-15T06:21:04;-3.19;59.94
67555;HTU21D;54385;53.516;49.456;2022-11-15T06:23:35;-3.13;59.78
67555;HTU21D;54385;53.516;49.456;2022-11-15T06:26:02;-3.04;59.84
67555;HTU21D;54385;53.516;49.456;2022-11-15T06:28:30;-2.95;59.21
67555;HTU21D;54385;53.516;49.456;2022-11-15T06:31:06;-2.90;59.33
67555;HTU21D;54385;53.516;49.456;2022-11-15T06:33:33;-2.89;58.21
67555;HTU21D;54385;53.516;49.456;2022-11-15T06:36:04;-2.86;57.42
67555;HTU21D;54385;53.516;49.456;2022-11-15T06:38:31;-2.87;57.33
67555;HTU21D;54385;53.516;49.456;2022-11-15T06:41:08;-3.03;56.42
67555;HTU21D;54385;53.516;49.456;2022-11-15T06:43:36;-2.96;56.23
67555;HTU21D;54385;53.516;49.456;2022-11-15T06:46:02;-2.87;56.23
67555;HTU21D;54385;53.516;49.456;2022-11-15T06:48:30;-2.81;54.91
67555;HTU21D;54385;53.516;49.456;2022-11-15T06:51:01;-2.83;55.60
67555;HTU21D;54385;53.516;49.456;2022-11-15T06:53:29;-2.74;55.49
67555;HTU21D;54385;53.516;49.456;2022-11-15T06:56:03;-2.66;55.00
67555;HTU21D;54385;53.516;49.456;2022-11-15T06:58:30;-2.60;53.34
67555;HTU21D;54385;53.516;49.456;2022-11-15T07:01:08;-2.64;51.91
67555;HTU21D;54385;53.516;49.456;2022-11-15T07:03:37;-2.63;54.97
67555;HTU21D;54385;53.516;49.456;2022-11-15T07:06:04;-2.60;51.93
67555;HTU21D;54385;53.516;49.456;2022-11-15T07:08:31;-2.56;51.48
67555;HTU21D;54385;53.516;49.456;2022-11-15T07:10:59;-2.49;51.19
67555;HTU21D;54385;53.516;49.456;2022-11-15T07:13:27;-2.50;51.98
67555;HTU21D;54385;53.516;49.456;2022-11-15T07:15:54;-2.57;51.30
67555;HTU21D;54385;53.516;49.456;2022-11-15T07:18:21;-2.45;52.21
67555;HTU21D;54385;53.516;49.456;2022-11-15T07:20:47;-2.43;50.57
67555;HTU21D;54385;53.516;49.456;2022-11-15T07:23:14;-2.51;50.18
67555;HTU21D;54385;53.516;49.456;2022-11-15T07:25:41;-2.47;51.41
67555;HTU21D;54385;53.516;49.456;2022-11-15T07:28:10;-2.48;51.03
67555;HTU21D;54385;53.516;49.456;2022-11-15T07:30:36;-2.52;51.78
67555;HTU21D;54385;53.516;49.456;2022-11-15T07:33:03;-2.63;51.13
67555;HTU21D;54385;53.516;49.456;2022-11-15T07:35:30;-2.65;51.23
67555;HTU21D;54385;53.516;49.456;2022-11-15T07:38:00;-2.60;52.53
67555;HTU21D;54385;53.516;49.456;2022-11-15T07:40:31;-2.64;53.17
67555;HTU21D;54385;53.516;49.456;2022-11-15T07:43:06;-2.66;53.68
67555;HTU21D;54385;53.516;49.456;2022-11-15T07:45:44;-2.61;53.88
67555;HTU21D;54385;53.516;49.456;2022-11-15T07:48:11;-2.61;54.93
67555;HTU21D;54385;53.516;49.456;2022-11-15T07:50:41;-2.63;55.21
67555;HTU21D;54385;53.516;49.456;2022-11-15T07:53:09;-2.60;55.15
67555;HTU21D;54385;53.516;49.456;2022-11-15T07:55:36;-2.57;56.50
67555;HTU21D;54385;53.516;49.456;2022-11-15T07:58:08;-2.50;55.29
67555;HTU21D;54385;53.516;49.456;2022-11-15T08:00:35;-2.64;54.86
67555;HTU21D;54385;53.516;49.456;2022-11-15T08:03:09;-2.60;55.68
67555;HTU21D;54385;53.516;49.456;2022-11-15T08:05:41;-2.53;55.23
67555;HTU21D;54385;53.516;49.456;2022-11-15T08:08:09;-2.59;55.06
67555;HTU21D;54385;53.516;49.456;2022-11-15T08:10:37;-2.68;54.75
67555;HTU21D;54385;53.516;49.456;2022-11-15T08:13:04;-2.67;54.99
67555;HTU21D;54385;53.516;49.456;2022-11-15T08:15:31;-2.56;54.71
67555;HTU21D;54385;53.516;49.456;2022-11-15T08:18:00;-2.52;54.15
67555;HTU21D;54385;53.516;49.456;2022-11-15T08:20:28;-2.53;54.38
67555;HTU21D;54385;53.516;49.456;2022-11-15T08:22:59;-2.51;54.15
67555;HTU21D;54385;53.516;49.456;2022-11-15T08:25:27;-2.51;55.45
67555;HTU21D;54385;53.516;49.456;2022-11-15T08:27:54;-2.59;54.97
67555;HTU21D;54385;53.516;49.456;2022-11-15T08:30:21;-2.69;56.22
67555;HTU21D;54385;53.516;49.456;2022-11-15T08:32:48;-2.64;56.24
67555;HTU21D;54385;53.516;49.456;2022-11-15T08:35:15;-2.54;55.69
67555;HTU21D;54385;53.516;49.456;2022-11-15T08:37:42;-2.50;55.86
67555;HTU21D;54385;53.516;49.456;2022-11-15T08:40:08;-2.48;55.85
67555;HTU21D;54385;53.516;49.456;2022-11-15T08:42:35;-2.63;55.57
67555;HTU21D;54385;53.516;49.456;2022-11-15T08:45:02;-2.65;56.55
67555;HTU21D;54385;53.516;49.456;2022-11-15T08:47:29;-2.63;55.16
67555;HTU21D;54385;53.516;49.456;2022-11-15T08:49:55;-2.61;55.10
67555;HTU21D;54385;53.516;49.456;2022-11-15T08:52:22;-2.64;53.23
67555;HTU21D;54385;53.516;49.456;2022-11-15T08:54:48;-2.74;53.53
67555;HTU21D;54385;53.516;49.456;2022-11-15T08:57:15;-2.75;55.22
67555;HTU21D;54385;53.516;49.456;2022-11-15T08:59:44;-2.78;55.02
67555;HTU21D;54385;53.516;49.456;2022-11-15T09:02:12;-2.95;55.86
67555;HTU21D;54385;53.516;49.456;2022-11-15T09:04:43;-3.08;57.04
67555;HTU21D;54385;53.516;49.456;2022-11-15T09:07:10;-2.96;57.67
67555;HTU21D;54385;53.516;49.456;2022-11-15T09:09:37;-2.96;56.77
67555;HTU21D;54385;53.516;49.456;2022-11-15T09:12:05;-2.95;57.74
67555;HTU21D;54385;53.516;49.456;2022-11-15T09:14:32;-2.78;57.42
67555;HTU21D;54385;53.516;49.456;2022-11-15T09:17:01;-2.73;55.37
67555;HTU21D;54385;53.516;49.456;2022-11-15T09:19:29;-2.63;54.59
67555;HTU21D;54385;53.516;49.456;2022-11-15T09:21:55;-2.71;51.23
67555;HTU21D;54385;53.516;49.456;2022-11-15T09:24:22;-2.65;54.90
67555;HTU21D;54385;53.516;49.456;2022-11-15T09:26:50;-2.61;55.49
67555;HTU21D;54385;53.516;49.456;2022-11-15T09:29:18;-2.66;56.67
67555;HTU21D;54385;53.516;49.456;2022-11-15T09:31:44;-2.54;57.15
67555;HTU21D;54385;53.516;49.456;2022-11-15T09:34:11;-2.45;56.66
67555;HTU21D;54385;53.516;49.456;2022-11-15T09:36:39;-2.47;57.48
67555;HTU21D;54385;53.516;49.456;2022-11-15T09:39:06;-2.52;56.94
67555;HTU21D;54385;53.516;49.456;2022-11-15T09:41:50;-2.46;56.97
67555;HTU21D;54385;53.516;49.456;2022-11-15T09:44:42;-2.35;56.64
67555;HTU21D;54385;53.516;49.456;2022-11-15T09:50:12;-2.35;55.71
67555;HTU21D;54385;53.516;49.456;2022-11-15T09:52:45;-2.38;56.87
67555;HTU21D;54385;53.516;49.456;2022-11-15T09:55:14;-2.36;55.86
67555;HTU21D;54385;53.516;49.456;2022-11-15T09:57:54;-2.35;55.04
67555;HTU21D;54385;53.516;49.456;2022-11-15T10:00:36;-2.42;54.76
67555;HTU21D;54385;53.516;49.456;2022-11-15T10:03:30;-2.45;54.60
67555;HTU21D;54385;53.516;49.456;2022-11-15T10:06:02;-2.42;56.08
67555;HTU21D;54385;53.516;49.456;2022-11-15T10:11:25;-2.27;55.42
67555;HTU21D;54385;53.516;49.456;2022-11-15T10:13:54;-2.26;55.82
67555;HTU21D;54385;53.516;49.456;2022-11-15T10:22:17;-2.28;55.32
67555;HTU21D;54385;53.516;49.456;2022-11-15T10:24:47;-2.34;56.73
67555;HTU21D;54385;53.516;49.456;2022-11-15T10:27:16;-2.32;55.78
67555;HTU21D;54385;53.516;49.456;2022-11-15T10:29:50;-2.29;55.69
67555;HTU21D;54385;53.516;49.456;2022-11-15T10:32:19;-2.33;56.55
67555;HTU21D;54385;53.516;49.456;2022-11-15T10:34:49;-2.34;56.59
67555;HTU21D;54385;53.516;49.456;2022-11-15T10:37:28;-2.23;56.73
67555;HTU21D;54385;53.516;49.456;2022-11-15T10:40:13;-2.21;57.05
67555;HTU21D;54385;53.516;49.456;2022-11-15T10:42:40;-2.18;57.07
67555;HTU21D;54385;53.516;49.456;2022-11-15T10:45:29;-2.16;57.09
67555;HTU21D;54385;53.516;49.456;2022-11-15T10:50:46;-2.22;55.86
67555;HTU21D;54385;53.516;49.456;2022-11-15T10:53:40;-2.12;56.77
67555;HTU21D;54385;53.516;49.456;2022-11-15T10:56:13;-2.16;55.84
67555;HTU21D;54385;53.516;49.456;2022-11-15T10:58:43;-2.17;55.38
67555;HTU21D;54385;53.516;49.456;2022-11-15T11:01:18;-2.20;56.04
67555;HTU21D;54385;53.516;49.456;2022-11-15T11:04:05;-2.26;55.78
67555;HTU21D;54385;53.516;49.456;2022-11-15T11:07:00;-2.22;55.84
67555;HTU21D;54385;53.516;49.456;2022-11-15T11:09:38;-2.27;55.74
67555;HTU21D;54385;53.516;49.456;2022-11-15T11:12:11;-2.26;56.75
67555;HTU21D;54385;53.516;49.456;2022-11-15T11:14:39;-2.31;55.94
67555;HTU21D;54385;53.516;49.456;2022-11-15T11:17:22;-2.29;56.00
67555;HTU21D;54385;53.516;49.456;2022-11-15T11:23:12;-2.13;56.24
67555;HTU21D;54385;53.516;49.456;2022-11-15T11:26:31;-2.22;55.39
67555;HTU21D;54385;53.516;49.456;2022-11-15T11:42:44;-2.31;54.57
67555;HTU21D;54385;53.516;49.456;2022-11-15T11:50:38;-2.05;56.23
67555;HTU21D;54385;53.516;49.456;2022-11-15T11:53:12;-2.08;54.91
67555;HTU21D;54385;53.516;49.456;2022-11-15T11:55:50;-2.13;55.26
67555;HTU21D;54385;53.516;49.456;2022-11-15T12:00:57;-2.22;55.18
67555;HTU21D;54385;53.516;49.456;2022-11-15T12:05:57;-2.43;55.07
67555;HTU21D;54385;53.516;49.456;2022-11-15T12:08:33;-2.41;55.07
67555;HTU21D;54385;53.516;49.456;2022-11-15T12:14:01;-2.31;55.11
67555;HTU21D;54385;53.516;49.456;2022-11-15T12:16:30;-2.34;53.81
67555;HTU21D;54385;53.516;49.456;2022-11-15T12:19:00;-2.44;54.39
67555;HTU21D;54385;53.516;49.456;2022-11-15T12:24:27;-2.44;53.97
67555;HTU21D;54385;53.516;49.456;2022-11-15T12:27:03;-2.49;54.10
67555;HTU21D;54385;53.516;49.456;2022-11-15T12:32:54;-2.49;54.52
67555;HTU21D;54385;53.516;49.456;2022-11-15T12:35:40;-2.51;54.48
67555;HTU21D;54385;53.516;49.456;2022-11-15T12:38:10;-2.48;55.41
67555;HTU21D;54385;53.516;49.456;2022-11-15T12:40:39;-2.47;54.81
67555;HTU21D;54385;53.516;49.456;2022-11-15T12:43:50;-2.42;54.79
67555;HTU21D;54385;53.516;49.456;2022-11-15T13:00:02;-2.38;56.64
67555;HTU21D;54385;53.516;49.456;2022-11-15T13:02:43;-2.39;56.79
67555;HTU21D;54385;53.516;49.456;2022-11-15T13:17:47;-2.63;57.57
67555;HTU21D;54385;53.516;49.456;2022-11-15T13:22:41;-2.68;58.39
67555;HTU21D;54385;53.516;49.456;2022-11-15T13:33:18;-2.74;59.08
67555;HTU21D;54385;53.516;49.456;2022-11-15T13:35:46;-2.71;59.11
67555;HTU21D;54385;53.516;49.456;2022-11-15T13:38:35;-2.62;59.03
67555;HTU21D;54385;53.516;49.456;2022-11-15T13:41:35;-2.60;59.35
67555;HTU21D;54385;53.516;49.456;2022-11-15T13:44:03;-2.63;59.39
67555;HTU21D;54385;53.516;49.456;2022-11-15T13:46:31;-2.58;59.45
67555;HTU21D;54385;53.516;49.456;2022-11-15T13:49:01;-2.60;59.57
67555;HTU21D;54385;53.516;49.456;2022-11-15T13:51:42;-2.60;59.95
67555;HTU21D;54385;53.516;49.456;2022-11-15T13:56:42;-2.59;59.50
67555;HTU21D;54385;53.516;49.456;2022-11-15T13:59:27;-2.56;60.12
67555;HTU21D;54385;53.516;49.456;2022-11-15T14:01:55;-2.57;59.90
67555;HTU21D;54385;53.516;49.456;2022-11-15T14:04:23;-2.50;60.00
67555;HTU21D;54385;53.516;49.456;2022-11-15T14:06:55;-2.54;60.47
67555;HTU21D;54385;53.516;49.456;2022-11-15T14:09:38;-2.49;60.67
67555;HTU21D;54385;53.516;49.456;2022-11-15T14:12:31;-2.49;61.13
67555;HTU21D;54385;53.516;49.456;2022-11-15T14:15:01;-2.37;61.54
67555;HTU21D;54385;53.516;49.456;2022-11-15T14:19:57;-2.35;67.29
67555;HTU21D;54385;53.516;49.456;2022-11-15T14:22:26;-2.41;68.49
67555;HTU21D;54385;53.516;49.456;2022-11-15T14:27:40;-2.30;69.34
67555;HTU21D;54385;53.516;49.456;2022-11-15T14:30:13;-2.24;70.26
67555;HTU21D;54385;53.516;49.456;2022-11-15T14:32:44;-2.13;69.61
67555;HTU21D;54385;53.516;49.456;2022-11-15T14:35:17;-2.16;69.19
67555;HTU21D;54385;53.516;49.456;2022-11-15T14:37:44;-2.22;68.81
67555;HTU21D;54385;53.516;49.456;2022-11-15T14:40:17;-2.17;68.24
67555;HTU21D;54385;53.516;49.456;2022-11-15T14:42:45;-2.18;67.81
67555;HTU21D;54385;53.516;49.456;2022-11-15T14:45:17;-2.17;67.00
67555;HTU21D;54385;53.516;49.456;2022-11-15T14:47:44;-2.23;66.74
67555;HTU21D;54385;53.516;49.456;2022-11-15T14:50:15;-2.28;65.46
67555;HTU21D;54385;53.516;49.456;2022-11-15T14:52:42;-2.29;66.42
67555;HTU21D;54385;53.516;49.456;2022-11-15T14:55:19;-2.20;66.97
67555;HTU21D;54385;53.516;49.456;2022-11-15T14:57:47;-2.08;66.91
67555;HTU21D;54385;53.516;49.456;2022-11-15T15:00:14;-2.01;67.21
67555;HTU21D;54385;53.516;49.456;2022-11-15T15:02:42;-1.94;66.65
67555;HTU21D;54385;53.516;49.456;2022-11-15T15:05:22;-2.03;65.93
67555;HTU21D;54385;53.516;49.456;2022-11-15T15:07:50;-2.23;66.53
67555;HTU21D;54385;53.516;49.456;2022-11-15T15:10:18;-2.18;66.44
67555;HTU21D;54385;53.516;49.456;2022-11-15T15:12:45;-2.26;66.40
67555;HTU21D;54385;53.516;49.456;2022-11-15T15:15:16;-2.34;66.77
67555;HTU21D;54385;53.516;49.456;2022-11-15T15:17:44;-2.34;66.64
67555;HTU21D;54385;53.516;49.456;2022-11-15T15:20:10;-2.32;66.93
67555;HTU21D;54385;53.516;49.456;2022-11-15T15:22:37;-2.31;66.36
67555;HTU21D;54385;53.516;49.456;2022-11-15T15:25:20;-2.34;66.17
67555;HTU21D;54385;53.516;49.456;2022-11-15T15:27:47;-2.43;65.75
67555;HTU21D;54385;53.516;49.456;2022-11-15T15:30:13;-2.37;66.07
67555;HTU21D;54385;53.516;49.456;2022-11-15T15:32:40;-2.45;65.23
67555;HTU21D;54385;53.516;49.456;2022-11-15T15:35:10;-2.46;65.46
67555;HTU21D;54385;53.516;49.456;2022-11-15T15:37:37;-2.49;65.11
67555;HTU21D;54385;53.516;49.456;2022-11-15T15:42:43;-2.51;64.71
67555;HTU21D;54385;53.516;49.456;2022-11-15T15:45:10;-2.53;64.37
67555;HTU21D;54385;53.516;49.456;2022-11-15T15:47:36;-2.56;64.66
67555;HTU21D;54385;53.516;49.456;2022-11-15T15:52:42;-2.49;62.86
67555;HTU21D;54385;53.516;49.456;2022-11-15T15:55:08;-2.43;61.94
67555;HTU21D;54385;53.516;49.456;2022-11-15T15:57:36;-2.46;60.06
67555;HTU21D;54385;53.516;49.456;2022-11-15T16:00:04;-2.57;59.72
67555;HTU21D;54385;53.516;49.456;2022-11-15T16:02:31;-2.65;59.53
67555;HTU21D;54385;53.516;49.456;2022-11-15T16:04:57;-2.74;59.64
67555;HTU21D;54385;53.516;49.456;2022-11-15T16:07:23;-2.73;59.13
67555;HTU21D;54385;53.516;49.456;2022-11-15T16:09:50;-2.74;58.86
67555;HTU21D;54385;53.516;49.456;2022-11-15T16:12:27;-2.71;58.38
67555;HTU21D;54385;53.516;49.456;2022-11-15T16:14:54;-2.74;57.74
67555;HTU21D;54385;53.516;49.456;2022-11-15T16:17:22;-2.75;57.58
67555;HTU21D;54385;53.516;49.456;2022-11-15T16:19:48;-2.80;57.34
67555;HTU21D;54385;53.516;49.456;2022-11-15T16:22:15;-2.77;57.79
67555;HTU21D;54385;53.516;49.456;2022-11-15T16:24:41;-2.76;57.58
67555;HTU21D;54385;53.516;49.456;2022-11-15T16:27:18;-2.75;57.96
67555;HTU21D;54385;53.516;49.456;2022-11-15T16:29:45;-2.78;58.04
67555;HTU21D;54385;53.516;49.456;2022-11-15T16:32:13;-2.81;58.31
67555;HTU21D;54385;53.516;49.456;2022-11-15T16:34:40;-2.77;58.60
67555;HTU21D;54385;53.516;49.456;2022-11-15T16:37:08;-2.75;58.50
67555;HTU21D;54385;53.516;49.456;2022-11-15T16:39:40;-2.81;58.67
67555;HTU21D;54385;53.516;49.456;2022-11-15T16:42:06;-2.79;59.07
67555;HTU21D;54385;53.516;49.456;2022-11-15T16:44:32;-2.81;59.51
67555;HTU21D;54385;53.516;49.456;2022-11-15T16:46:59;-2.83;59.72
67555;HTU21D;54385;53.516;49.456;2022-11-15T16:49:25;-2.83;59.92
67555;HTU21D;54385;53.516;49.456;2022-11-15T16:51:51;-2.80;60.48
67555;HTU21D;54385;53.516;49.456;2022-11-15T16:54:18;-2.77;61.65
67555;HTU21D;54385;53.516;49.456;2022-11-15T16:56:44;-2.77;65.46
67555;HTU21D;54385;53.516;49.456;2022-11-15T16:59:15;-2.79;65.82
67555;HTU21D;54385;53.516;49.456;2022-11-15T17:01:42;-2.78;65.33
67555;HTU21D;54385;53.516;49.456;2022-11-15T17:04:17;-2.80;63.63
67555;HTU21D;54385;53.516;49.456;2022-11-15T17:06:45;-2.72;63.73
67555;HTU21D;54385;53.516;49.456;2022-11-15T17:09:19;-2.71;62.76
67555;HTU21D;54385;53.516;49.456;2022-11-15T17:11:48;-2.78;61.80
67555;HTU21D;54385;53.516;49.456;2022-11-15T17:14:15;-2.72;61.54
67555;HTU21D;54385;53.516;49.456;2022-11-15T17:16:42;-2.65;61.99
67555;HTU21D;54385;53.516;49.456;2022-11-15T17:19:13;-2.61;61.39
67555;HTU21D;54385;53.516;49.456;2022-11-15T17:21:41;-2.65;61.29
67555;HTU21D;54385;53.516;49.456;2022-11-15T17:24:08;-2.69;60.80
67555;HTU21D;54385;53.516;49.456;2022-11-15T17:26:35;-2.61;61.12
67555;HTU21D;54385;53.516;49.456;2022-11-15T17:29:02;-2.57;61.67